createdAt,value
2022-08-23T00:02:27.439Z,20.10
2022-08-23T00:05:08.441Z,20.10
2022-08-23T00:07:41.057Z,20.10
2022-08-23T00:10:15.997Z,20.10
2022-08-23T00:12:45.941Z,20.10
2022-08-23T00:15:17.111Z,20.00
2022-08-23T00:17:44.851Z,20.10
2022-08-23T00:20:17.004Z,20.00
2022-08-23T00:22:44.429Z,20.00
2022-08-23T00:25:14.288Z,20.00
2022-08-23T00:27:41.754Z,20.00
2022-08-23T00:30:13.124Z,20.00
2022-08-23T00:32:42.419Z,19.90
2022-08-23T00:35:12.386Z,20.00
2022-08-23T00:38:31.575Z,19.90
2022-08-23T00:40:36.225Z,20.00
2022-08-23T00:43:31.755Z,19.90
2022-08-23T00:46:46.719Z,20.00
2022-08-23T00:49:16.735Z,19.90
2022-08-23T00:52:03.628Z,20.00
2022-08-23T00:54:33.266Z,19.90
2022-08-23T00:57:05.699Z,19.90
2022-08-23T00:59:33.775Z,19.90
2022-08-23T01:02:01.884Z,19.90
2022-08-23T01:04:39.919Z,19.90
2022-08-23T01:07:35.107Z,19.90
2022-08-23T01:10:20.013Z,19.90
2022-08-23T01:12:58.468Z,19.90
2022-08-23T01:15:42.015Z,19.90
2022-08-23T01:18:15.000Z,19.90
2022-08-23T01:21:16.704Z,19.90
2022-08-23T01:23:49.507Z,19.90
2022-08-23T01:26:21.860Z,19.90
2022-08-23T01:28:52.241Z,19.90
2022-08-23T01:31:22.438Z,19.90
2022-08-23T01:34:05.009Z,19.90
2022-08-23T01:36:33.348Z,19.90
2022-08-23T01:39:01.070Z,19.90
2022-08-23T01:41:28.635Z,19.90
2022-08-23T01:43:55.840Z,19.90
2022-08-23T01:46:26.973Z,19.90
2022-08-23T01:48:55.685Z,19.90
2022-08-23T01:51:25.504Z,19.90
2022-08-23T01:53:53.196Z,19.80
2022-08-23T01:56:38.701Z,19.80
2022-08-23T01:59:13.345Z,19.80
2022-08-23T02:01:45.222Z,19.80
2022-08-23T02:04:12.726Z,19.90
2022-08-23T02:06:39.947Z,19.80
2022-08-23T02:09:17.306Z,19.80
2022-08-23T02:11:47.173Z,19.80
2022-08-23T02:14:20.686Z,19.80
2022-08-23T02:17:04.311Z,19.80
2022-08-23T02:19:38.354Z,19.80
2022-08-23T02:22:08.782Z,19.80
2022-08-23T02:24:45.058Z,19.80
2022-08-23T02:27:17.114Z,19.80
2022-08-23T02:29:47.452Z,19.80
2022-08-23T02:32:18.163Z,19.80
2022-08-23T02:34:51.048Z,19.80
2022-08-23T02:37:31.986Z,19.80
2022-08-23T02:39:59.154Z,19.80
2022-08-23T02:42:26.520Z,19.80
2022-08-23T02:44:54.554Z,19.80
2022-08-23T02:47:22.190Z,19.80
2022-08-23T02:50:10.168Z,19.80
2022-08-23T02:52:37.557Z,19.80
2022-08-23T02:55:07.666Z,19.80
2022-08-23T02:57:35.441Z,19.80
2022-08-23T03:00:11.448Z,19.80
2022-08-23T03:02:40.581Z,19.80
2022-08-23T03:05:09.951Z,19.80
2022-08-23T03:07:37.971Z,19.80
2022-08-23T03:10:07.451Z,19.80
2022-08-23T03:12:37.931Z,19.80
2022-08-23T03:15:06.834Z,19.80
2022-08-23T03:17:35.367Z,19.80
2022-08-23T03:20:06.082Z,19.70
2022-08-23T03:22:34.342Z,19.80
2022-08-23T03:25:02.060Z,19.80
2022-08-23T03:27:45.097Z,19.80
2022-08-23T03:30:17.775Z,19.80
2022-08-23T03:32:51.935Z,19.70
2022-08-23T03:35:19.843Z,19.80
2022-08-23T03:37:47.097Z,19.80
2022-08-23T03:40:16.282Z,19.80
2022-08-23T03:42:43.790Z,19.80
2022-08-23T03:45:11.843Z,19.80
2022-08-23T03:47:39.290Z,19.70
2022-08-23T03:50:07.755Z,19.80
2022-08-23T03:52:36.609Z,19.70
2022-08-23T03:55:04.469Z,19.70
2022-08-23T03:57:34.613Z,19.70
2022-08-23T04:00:06.381Z,19.70
2022-08-23T04:02:41.552Z,19.70
2022-08-23T04:05:12.359Z,19.60
2022-08-23T04:08:06.130Z,19.70
2022-08-23T04:10:33.450Z,19.70
2022-08-23T04:13:01.551Z,19.70
2022-08-23T04:15:29.306Z,19.70
2022-08-23T04:17:59.563Z,19.70
2022-08-23T04:20:27.794Z,19.70
2022-08-23T04:22:58.875Z,19.70
2022-08-23T04:25:33.627Z,19.70
2022-08-23T04:28:03.620Z,19.70
2022-08-23T04:30:33.368Z,19.70
2022-08-23T04:33:01.842Z,19.70
2022-08-23T04:35:30.971Z,19.70
2022-08-23T04:37:58.339Z,19.70
2022-08-23T04:40:45.279Z,19.80
2022-08-23T04:43:14.023Z,19.70
2022-08-23T04:45:42.137Z,19.80
2022-08-23T04:48:17.439Z,19.70
2022-08-23T04:50:49.616Z,19.80
2022-08-23T04:53:19.375Z,19.80
2022-08-23T04:55:56.929Z,19.80
2022-08-23T04:58:24.442Z,19.80
2022-08-23T05:00:53.239Z,19.90
2022-08-23T05:03:29.804Z,19.90
2022-08-23T05:05:58.810Z,19.90
2022-08-23T05:08:35.472Z,19.90
2022-08-23T05:11:07.786Z,19.90
2022-08-23T05:13:38.869Z,19.90
2022-08-23T05:16:08.770Z,19.90
2022-08-23T05:18:41.409Z,20.00
2022-08-23T05:21:18.915Z,20.00
2022-08-23T05:23:50.759Z,20.00
2022-08-23T05:26:22.343Z,20.00
2022-08-23T05:28:50.665Z,20.00
2022-08-23T05:31:27.497Z,20.10
2022-08-23T05:33:59.458Z,20.10
2022-08-23T05:36:47.622Z,20.20
2022-08-23T05:39:26.402Z,20.20
2022-08-23T05:42:03.285Z,20.20
2022-08-23T05:44:34.516Z,20.20
2022-08-23T05:47:10.705Z,20.30
2022-08-23T06:02:37.326Z,20.40
2022-08-23T06:05:06.870Z,20.50
2022-08-23T06:07:36.424Z,20.60
2022-08-23T06:10:05.665Z,20.60
2022-08-23T06:12:34.789Z,20.70
2022-08-23T06:15:03.108Z,20.70
2022-08-23T06:17:32.018Z,20.70
2022-08-23T06:19:59.973Z,20.80
2022-08-23T06:22:57.250Z,20.90
2022-08-23T06:25:24.603Z,20.90
2022-08-23T06:27:55.918Z,21.00
2022-08-23T06:30:24.113Z,21.00
2022-08-23T06:32:57.195Z,21.10
2022-08-23T06:35:43.173Z,21.20
2022-08-23T06:38:41.759Z,21.20
2022-08-23T06:41:22.917Z,21.30
2022-08-23T06:44:09.519Z,21.40
2022-08-23T06:46:57.544Z,21.50
2022-08-23T06:49:27.601Z,21.50
2022-08-23T06:51:57.943Z,21.70
2022-08-23T06:54:47.668Z,21.70
2022-08-23T06:57:32.791Z,21.80
2022-08-23T07:00:22.420Z,21.90
2022-08-23T07:03:11.912Z,22.00
2022-08-23T07:06:12.035Z,22.00
2022-08-23T07:08:40.358Z,22.10
2022-08-23T07:11:07.797Z,22.20
2022-08-23T07:13:40.698Z,22.30
2022-08-23T07:16:08.149Z,22.30
2022-08-23T07:18:35.861Z,22.40
2022-08-23T07:21:05.917Z,22.50
2022-08-23T07:23:35.013Z,22.50
2022-08-23T07:26:11.438Z,22.70
2022-08-23T07:28:41.622Z,22.70
2022-08-23T07:31:24.262Z,22.80
2022-08-23T07:33:51.788Z,22.80
2022-08-23T07:36:24.168Z,22.90
2022-08-23T07:38:53.671Z,23.00
2022-08-23T07:41:25.570Z,23.10
2022-08-23T07:43:55.136Z,23.20
2022-08-23T07:46:22.346Z,23.30
2022-08-23T07:48:58.603Z,23.40
2022-08-23T07:51:34.604Z,23.50
2022-08-23T07:54:07.942Z,23.70
2022-08-23T07:56:44.439Z,23.80
2022-08-23T07:59:47.783Z,23.90
2022-08-23T08:02:53.740Z,24.10
2022-08-23T08:05:27.662Z,24.20
2022-08-23T08:07:56.901Z,24.30
2022-08-23T08:10:24.325Z,24.50
2022-08-23T08:12:51.926Z,24.60
2022-08-23T08:15:20.644Z,24.70
2022-08-23T08:17:55.068Z,24.80
2022-08-23T08:20:23.344Z,24.90
2022-08-23T08:23:11.463Z,25.00
2022-08-23T08:26:07.326Z,25.10
2022-08-23T08:28:37.660Z,25.20
2022-08-23T08:31:07.234Z,25.40
2022-08-23T08:33:34.503Z,25.50
2022-08-23T08:36:04.910Z,25.70
2022-08-23T08:38:47.902Z,25.80
2022-08-23T08:41:32.803Z,25.90
2022-08-23T08:44:16.826Z,26.00
2022-08-23T08:46:57.228Z,26.20
2022-08-23T08:50:03.838Z,26.10
2022-08-23T08:52:39.411Z,26.20
2022-08-23T08:55:38.131Z,26.30
2022-08-23T08:58:07.265Z,26.40
2022-08-23T09:00:38.826Z,26.50
2022-08-23T09:03:16.915Z,26.70
2022-08-23T09:06:16.294Z,26.80
2022-08-23T09:09:44.542Z,26.90
2022-08-23T09:12:53.353Z,27.00
2022-08-23T09:15:46.530Z,27.00
2022-08-23T09:18:17.239Z,27.00
2022-08-23T09:20:52.110Z,27.00
2022-08-23T09:23:32.324Z,27.00
2022-08-23T09:26:05.499Z,27.10
2022-08-23T09:28:38.159Z,27.10
2022-08-23T09:31:08.746Z,27.20
2022-08-23T09:33:46.047Z,27.40
2022-08-23T09:36:39.895Z,27.60
2022-08-23T09:39:35.508Z,27.80
2022-08-23T09:42:35.921Z,28.40
2022-08-23T09:45:35.189Z,28.60
2022-08-23T09:48:11.886Z,28.70
2022-08-23T09:50:57.923Z,28.70
2022-08-23T09:53:28.204Z,28.80
2022-08-23T09:56:11.361Z,29.00
2022-08-23T09:58:54.122Z,29.30
2022-08-23T10:01:39.513Z,30.00
2022-08-23T10:04:41.450Z,30.00
2022-08-23T10:07:43.936Z,30.10
2022-08-23T10:10:23.920Z,30.10
2022-08-23T10:12:56.482Z,30.00
2022-08-23T10:16:07.764Z,30.00
2022-08-23T10:19:15.370Z,30.10
2022-08-23T10:22:04.978Z,30.20
2022-08-23T10:24:45.365Z,30.20
2022-08-23T10:27:50.727Z,30.30
2022-08-23T10:30:34.271Z,30.40
2022-08-23T10:33:26.676Z,30.60
2022-08-23T10:36:28.121Z,30.80
2022-08-23T10:39:30.357Z,31.10
2022-08-23T10:42:41.662Z,31.30
2022-08-23T10:45:36.334Z,31.50
2022-08-23T10:48:38.412Z,31.70
2022-08-23T10:51:22.631Z,31.70
2022-08-23T10:54:06.246Z,31.70
2022-08-23T10:56:42.935Z,31.70
2022-08-23T10:59:24.895Z,31.70
2022-08-23T11:02:29.605Z,31.70
2022-08-23T11:05:32.248Z,31.80
2022-08-23T11:08:29.934Z,32.10
2022-08-23T11:10:58.178Z,32.30
2022-08-23T11:13:35.235Z,32.70
2022-08-23T11:16:15.914Z,32.70
2022-08-23T11:18:51.309Z,32.60
2022-08-23T11:21:33.386Z,32.70
2022-08-23T11:24:05.505Z,32.80
2022-08-23T11:26:37.736Z,32.70
2022-08-23T11:29:08.252Z,32.70
2022-08-23T11:32:24.990Z,32.90
2022-08-23T11:35:30.362Z,32.80
2022-08-23T11:38:05.266Z,32.80
2022-08-23T11:41:18.722Z,32.90
2022-08-23T11:43:57.167Z,32.90
2022-08-23T11:46:32.468Z,33.30
2022-08-23T11:49:31.907Z,33.40
2022-08-23T11:52:49.774Z,33.40
2022-08-23T11:56:05.604Z,33.50
2022-08-23T11:59:41.546Z,33.70
2022-08-23T12:02:34.664Z,33.80
2022-08-23T12:05:46.694Z,33.70
2022-08-23T12:08:27.607Z,33.80
2022-08-23T12:10:54.986Z,34.00
2022-08-23T12:13:22.749Z,34.00
2022-08-23T12:16:17.511Z,34.00
2022-08-23T12:18:52.809Z,34.00
2022-08-23T12:21:45.751Z,34.20
2022-08-23T12:24:25.914Z,34.10
2022-08-23T12:27:36.675Z,34.00
2022-08-23T12:30:20.314Z,34.00
2022-08-23T12:33:26.173Z,33.90
2022-08-23T12:36:35.765Z,34.00
2022-08-23T12:39:23.890Z,34.00
2022-08-23T12:42:04.351Z,34.00
2022-08-23T12:44:34.453Z,34.10
2022-08-23T12:47:20.472Z,34.20
2022-08-23T12:50:09.185Z,34.20
2022-08-23T12:52:38.287Z,34.30
2022-08-23T12:55:18.906Z,34.40
2022-08-23T12:57:56.110Z,34.50
2022-08-23T13:00:43.429Z,34.50
2022-08-23T13:03:27.742Z,34.70
2022-08-23T13:06:12.938Z,34.80
2022-08-23T13:08:57.991Z,35.00
2022-08-23T13:11:31.389Z,35.10
2022-08-23T13:13:59.396Z,35.30
2022-08-23T13:16:36.594Z,35.20
2022-08-23T13:19:31.706Z,35.10
2022-08-23T13:22:22.613Z,35.00
2022-08-23T13:25:31.664Z,35.00
2022-08-23T13:28:27.166Z,35.00
2022-08-23T13:31:08.675Z,35.00
2022-08-23T13:33:37.251Z,34.90
2022-08-23T13:36:16.482Z,35.10
2022-08-23T13:38:45.167Z,35.20
2022-08-23T13:41:38.827Z,35.30
2022-08-23T13:44:09.977Z,35.40
2022-08-23T13:46:47.742Z,35.40
2022-08-23T13:49:27.458Z,35.30
2022-08-23T13:52:32.957Z,35.30
2022-08-23T13:54:52.598Z,35.30
2022-08-23T13:57:22.170Z,35.50
2022-08-23T13:59:56.095Z,35.50
2022-08-23T14:02:24.949Z,35.50
2022-08-23T14:04:52.469Z,35.40
2022-08-23T14:07:19.952Z,35.40
2022-08-23T14:09:50.090Z,35.50
2022-08-23T14:12:24.832Z,35.50
2022-08-23T14:14:57.633Z,35.50
2022-08-23T14:17:26.099Z,35.50
2022-08-23T14:22:41.552Z,35.50
2022-08-23T14:25:10.787Z,35.50
2022-08-23T14:27:41.854Z,35.50
2022-08-23T14:30:22.782Z,35.60
2022-08-23T14:32:50.271Z,35.80
2022-08-23T14:35:17.879Z,35.80
2022-08-23T14:40:36.482Z,35.50
2022-08-23T14:43:05.725Z,35.50
2022-08-23T14:45:32.883Z,35.50
2022-08-23T14:48:00.694Z,35.50
2022-08-23T14:50:28.701Z,35.40
2022-08-23T14:52:57.547Z,35.50
2022-08-23T14:55:25.382Z,35.50
2022-08-23T14:57:52.602Z,35.40
2022-08-23T15:00:19.955Z,35.30
2022-08-23T15:02:50.042Z,35.30
2022-08-23T15:05:18.309Z,35.20
2022-08-23T15:07:45.918Z,35.20
2022-08-23T15:13:19.532Z,35.00
2022-08-23T15:15:51.332Z,34.90
2022-08-23T15:18:19.276Z,34.70
2022-08-23T15:20:47.504Z,34.60
2022-08-23T15:23:15.436Z,34.50
2022-08-23T15:25:44.827Z,34.50
2022-08-23T15:28:16.754Z,34.40
2022-08-23T15:30:46.045Z,34.30
2022-08-23T15:33:13.604Z,34.30
2022-08-23T15:35:48.944Z,34.30
2022-08-23T15:38:22.979Z,34.10
2022-08-23T15:40:53.619Z,34.00
2022-08-23T15:43:25.862Z,34.00
2022-08-23T15:46:12.395Z,34.00
2022-08-23T15:48:50.293Z,34.00
2022-08-23T15:51:19.163Z,33.90
2022-08-23T15:53:47.890Z,34.00
2022-08-23T15:56:28.878Z,33.90
2022-08-23T15:58:56.621Z,33.80
2022-08-23T16:01:25.609Z,33.80
2022-08-23T16:03:53.507Z,33.70
2022-08-23T16:06:21.909Z,33.60
2022-08-23T16:08:52.496Z,33.50
2022-08-23T16:11:21.150Z,33.50
2022-08-23T16:13:50.088Z,33.40
2022-08-23T16:16:27.285Z,33.30
2022-08-23T16:18:56.934Z,33.30
2022-08-23T16:21:27.350Z,33.30
2022-08-23T16:23:56.594Z,33.30
2022-08-23T16:26:35.112Z,33.30
2022-08-23T16:29:08.682Z,33.30
2022-08-23T16:31:39.230Z,33.20
2022-08-23T16:34:13.813Z,33.20
2022-08-23T16:36:45.013Z,33.10
2022-08-23T16:39:14.614Z,33.00
2022-08-23T16:41:42.168Z,33.00
2022-08-23T16:44:09.885Z,32.90
2022-08-23T16:46:41.219Z,32.90
2022-08-23T16:49:10.806Z,32.80
2022-08-23T16:51:38.306Z,32.80
2022-08-23T16:54:05.910Z,32.80
2022-08-23T16:56:34.036Z,32.80
2022-08-23T16:59:04.550Z,32.70
2022-08-23T17:01:49.380Z,32.60
2022-08-23T17:04:18.476Z,32.50
2022-08-23T17:06:46.260Z,32.50
2022-08-23T17:09:15.482Z,32.40
2022-08-23T17:11:44.315Z,32.30
2022-08-23T17:14:12.661Z,32.20
2022-08-23T17:16:41.883Z,32.10
2022-08-23T17:19:10.966Z,32.00
2022-08-23T17:21:38.773Z,31.90
2022-08-23T17:24:06.331Z,31.70
2022-08-23T17:26:34.050Z,31.70
2022-08-23T17:29:04.594Z,31.50
2022-08-23T17:31:31.864Z,31.40
2022-08-23T17:34:11.372Z,31.30
2022-08-23T17:36:51.091Z,31.10
2022-08-23T17:39:22.857Z,31.00
2022-08-23T17:41:51.078Z,30.90
2022-08-23T17:44:18.335Z,30.80
2022-08-23T17:46:47.128Z,30.60
2022-08-23T17:49:16.526Z,30.50
2022-08-23T17:51:44.557Z,30.40
2022-08-23T17:54:16.080Z,30.30
2022-08-23T17:56:50.193Z,30.20
2022-08-23T17:59:20.366Z,30.10
2022-08-23T18:01:47.866Z,29.90
2022-08-23T18:04:14.908Z,29.80
2022-08-23T18:06:42.477Z,29.70
2022-08-23T18:09:10.810Z,29.60
2022-08-23T18:11:37.965Z,29.50
2022-08-23T18:14:05.995Z,29.40
2022-08-23T18:16:35.718Z,29.30
2022-08-23T18:19:07.112Z,29.30
2022-08-23T18:21:41.482Z,29.10
2022-08-23T18:24:09.551Z,29.00
2022-08-23T18:26:56.693Z,28.90
2022-08-23T18:29:24.437Z,28.80
2022-08-23T18:31:51.937Z,28.80
2022-08-23T18:34:19.967Z,28.70
2022-08-23T18:36:47.740Z,28.60
2022-08-23T18:39:15.996Z,28.60
2022-08-23T18:41:43.779Z,28.50
2022-08-23T18:44:11.730Z,28.50
2022-08-23T18:46:42.123Z,28.40
2022-08-23T18:49:12.117Z,28.20
2022-08-23T18:51:41.531Z,28.20
2022-08-23T18:54:09.690Z,28.10
2022-08-23T18:56:37.277Z,28.10
2022-08-23T18:59:06.146Z,28.00
2022-08-23T19:01:40.591Z,27.90
2022-08-23T19:04:10.186Z,27.90
2022-08-23T19:06:38.632Z,27.80
2022-08-23T19:09:08.106Z,27.70
2022-08-23T19:11:39.693Z,27.60
2022-08-23T19:14:09.958Z,27.50
2022-08-23T19:16:38.061Z,27.50
2022-08-23T19:19:06.842Z,27.40
2022-08-23T19:21:34.139Z,27.30
2022-08-23T19:24:02.414Z,27.30
2022-08-23T19:26:34.315Z,27.20
2022-08-23T19:29:07.789Z,27.20
2022-08-23T19:31:41.735Z,27.10
2022-08-23T19:34:11.345Z,27.00
2022-08-23T19:36:48.343Z,26.90
2022-08-23T19:39:19.866Z,26.80
2022-08-23T19:41:48.556Z,26.70
2022-08-23T19:44:17.722Z,26.60
2022-08-23T19:46:45.717Z,26.50
2022-08-23T19:49:14.586Z,26.50
2022-08-23T19:51:43.787Z,26.40
2022-08-23T19:54:13.600Z,26.30
2022-08-23T19:56:49.821Z,26.30
2022-08-23T19:59:23.306Z,26.20
2022-08-23T20:01:53.523Z,26.20
2022-08-23T20:04:23.111Z,26.10
2022-08-23T20:06:51.045Z,25.90
2022-08-23T20:09:21.465Z,25.80
2022-08-23T20:11:52.611Z,25.70
2022-08-23T20:14:23.188Z,25.70
2022-08-23T20:16:51.020Z,25.60
2022-08-23T20:19:18.675Z,25.50
2022-08-23T20:21:46.136Z,25.40
2022-08-23T20:24:15.091Z,25.40
2022-08-23T20:26:46.802Z,25.30
2022-08-23T20:29:21.153Z,25.30
2022-08-23T20:31:56.061Z,25.40
2022-08-23T20:34:26.509Z,25.40
2022-08-23T20:36:56.197Z,25.30
2022-08-23T20:39:25.688Z,25.20
2022-08-23T20:41:53.980Z,25.20
2022-08-23T20:44:25.826Z,25.20
2022-08-23T20:46:56.025Z,25.20
2022-08-23T20:49:25.949Z,25.10
2022-08-23T20:51:52.998Z,25.10
2022-08-23T20:54:20.288Z,25.00
2022-08-23T20:56:51.448Z,25.00
2022-08-23T20:59:19.811Z,24.90
2022-08-23T21:01:48.092Z,24.90
2022-08-23T21:04:15.857Z,24.90
2022-08-23T21:06:50.559Z,24.80
2022-08-23T21:09:23.423Z,24.70
2022-08-23T21:11:53.296Z,24.70
2022-08-23T21:14:20.883Z,24.60
2022-08-23T21:16:48.126Z,24.60
2022-08-23T21:19:17.080Z,24.50
2022-08-23T21:21:44.750Z,24.50
2022-08-23T21:24:13.429Z,24.50
2022-08-23T21:26:41.724Z,24.50
2022-08-23T21:29:10.620Z,24.50
2022-08-23T21:31:39.189Z,24.40
2022-08-23T21:34:08.166Z,24.40
2022-08-23T21:36:36.299Z,24.30
2022-08-23T21:39:05.141Z,24.30
2022-08-23T21:41:40.584Z,24.40
2022-08-23T21:44:12.333Z,24.30
2022-08-23T21:46:40.946Z,24.30
2022-08-23T21:49:09.206Z,24.30
2022-08-23T21:51:40.720Z,24.20
2022-08-23T21:54:10.882Z,24.30
2022-08-23T21:56:39.134Z,24.30
2022-08-23T21:59:10.443Z,24.20
2022-08-23T22:01:37.803Z,24.20
2022-08-23T22:04:09.830Z,24.30
2022-08-23T22:06:38.215Z,24.30
2022-08-23T22:09:09.885Z,24.30
2022-08-23T22:11:40.583Z,24.30
2022-08-23T22:14:15.409Z,24.20
2022-08-23T22:16:54.989Z,24.20
2022-08-23T22:19:22.972Z,24.10
2022-08-23T22:21:52.376Z,24.10
2022-08-23T22:24:25.475Z,24.10
2022-08-23T22:26:55.267Z,24.10
2022-08-23T22:29:23.636Z,24.10
2022-08-23T22:31:51.318Z,24.10
2022-08-23T22:34:18.658Z,24.10
2022-08-23T22:36:46.251Z,24.10
2022-08-23T22:39:20.244Z,24.00
2022-08-23T22:41:47.261Z,24.00
2022-08-23T22:44:14.308Z,24.00
2022-08-23T22:46:42.216Z,23.90
2022-08-23T22:49:09.478Z,23.90
2022-08-23T22:51:38.466Z,23.90
2022-08-23T22:54:09.716Z,23.90
2022-08-23T22:56:43.289Z,23.80
2022-08-23T22:59:12.359Z,23.80
2022-08-23T23:01:47.986Z,23.70
2022-08-23T23:04:18.837Z,23.70
2022-08-23T23:06:48.861Z,23.70
2022-08-23T23:09:16.971Z,23.70
2022-08-23T23:11:45.739Z,23.70
2022-08-23T23:14:16.419Z,23.70
2022-08-23T23:16:44.909Z,23.70
2022-08-23T23:19:31.365Z,23.70
2022-08-23T23:21:59.736Z,23.70
2022-08-23T23:24:31.915Z,23.60
2022-08-23T23:27:00.677Z,23.60
2022-08-23T23:29:30.002Z,23.60
2022-08-23T23:31:57.910Z,23.60
2022-08-23T23:34:26.649Z,23.60
2022-08-23T23:36:57.366Z,23.60
2022-08-23T23:39:25.339Z,23.60
2022-08-23T23:41:53.176Z,23.60
2022-08-23T23:44:24.317Z,23.50
2022-08-23T23:47:01.815Z,23.50
2022-08-23T23:49:33.219Z,23.40
2022-08-23T23:52:04.664Z,23.40
2022-08-23T23:54:33.655Z,23.40
2022-08-23T23:57:02.397Z,23.40
2022-08-23T23:59:29.800Z,23.30
